sensor_id;sensor_type;location;lat;lon;timestamp;P1;durP1;ratioP1;P2;durP2;ratioP2
20369;SDS011;10344;47.592;9.600;2023-07-20T08:58:25;2.80;;;1.80;;
20369;SDS011;10344;47.592;9.600;2023-07-20T09:00:53;3.33;;;1.80;;
20369;SDS011;10344;47.592;9.600;2023-07-20T09:03:20;2.65;;;1.67;;
20369;SDS011;10344;47.592;9.600;2023-07-20T09:08:14;3.15;;;1.65;;
20369;SDS011;10344;47.592;9.600;2023-07-20T09:10:42;4.93;;;1.55;;
20369;SDS011;10344;47.592;9.600;2023-07-20T09:18:00;3.20;;;1.80;;
20369;SDS011;10344;47.592;9.600;2023-07-20T09:20:30;2.60;;;1.60;;
20369;SDS011;10344;47.592;9.600;2023-07-20T09:22:58;3.57;;;1.60;;
20369;SDS011;10344;47.592;9.600;2023-07-20T09:25:24;3.53;;;2.00;;
20369;SDS011;10344;47.592;9.600;2023-07-20T09:27:51;3.20;;;1.77;;
20369;SDS011;10344;47.592;9.600;2023-07-20T09:30:17;4.05;;;1.75;;
20369;SDS011;10344;47.592;9.600;2023-07-20T09:32:44;2.70;;;1.80;;
20369;SDS011;10344;47.592;9.600;2023-07-20T09:35:15;3.65;;;1.70;;
20369;SDS011;10344;47.592;9.600;2023-07-20T09:48:23;3.30;;;1.70;;
20369;SDS011;10344;47.592;9.600;2023-07-20T09:50:50;4.25;;;1.80;;
20369;SDS011;10344;47.592;9.600;2023-07-20T09:53:21;2.55;;;1.60;;
20369;SDS011;10344;47.592;9.600;2023-07-20T09:58:17;2.55;;;1.50;;
20369;SDS011;10344;47.592;9.600;2023-07-20T10:00:43;2.80;;;1.63;;
20369;SDS011;10344;47.592;9.600;2023-07-20T10:03:20;2.17;;;1.50;;
20369;SDS011;10344;47.592;9.600;2023-07-20T10:05:56;3.55;;;1.92;;
20369;SDS011;10344;47.592;9.600;2023-07-20T10:08:28;2.88;;;1.70;;
20369;SDS011;10344;47.592;9.600;2023-07-20T10:10:57;1.67;;;1.40;;
20369;SDS011;10344;47.592;9.600;2023-07-20T10:13:26;3.70;;;1.70;;
20369;SDS011;10344;47.592;9.600;2023-07-20T10:16:02;3.25;;;1.70;;
20369;SDS011;10344;47.592;9.600;2023-07-20T10:18:37;2.45;;;1.75;;
20369;SDS011;10344;47.592;9.600;2023-07-20T10:23:40;2.83;;;1.55;;
20369;SDS011;10344;47.592;9.600;2023-07-20T11:38:57;2.72;;;1.30;;
20369;SDS011;10344;47.592;9.600;2023-07-20T11:41:24;3.58;;;1.35;;
20369;SDS011;10344;47.592;9.600;2023-07-20T11:43:51;1.52;;;1.30;;
20369;SDS011;10344;47.592;9.600;2023-07-20T11:46:16;1.92;;;1.42;;
20369;SDS011;10344;47.592;9.600;2023-07-20T11:53:43;1.80;;;1.30;;
20369;SDS011;10344;47.592;9.600;2023-07-20T16:40:40;2.25;;;1.55;;
20369;SDS011;10344;47.592;9.600;2023-07-20T16:50:25;2.63;;;1.25;;
20369;SDS011;10344;47.592;9.600;2023-07-20T16:52:51;2.13;;;1.70;;
20369;SDS011;10344;47.592;9.600;2023-07-20T16:55:17;2.22;;;1.40;;
20369;SDS011;10344;47.592;9.600;2023-07-20T17:10:06;1.50;;;1.40;;
20369;SDS011;10344;47.592;9.600;2023-07-20T17:12:33;2.42;;;1.67;;
20369;SDS011;10344;47.592;9.600;2023-07-20T17:15:02;2.15;;;1.30;;
20369;SDS011;10344;47.592;9.600;2023-07-20T17:17:28;1.88;;;1.48;;
20369;SDS011;10344;47.592;9.600;2023-07-20T17:19:53;1.40;;;1.27;;
20369;SDS011;10344;47.592;9.600;2023-07-20T17:22:21;1.80;;;1.30;;
20369;SDS011;10344;47.592;9.600;2023-07-20T17:24:49;1.90;;;1.30;;
20369;SDS011;10344;47.592;9.600;2023-07-20T17:27:22;2.33;;;1.30;;
20369;SDS011;10344;47.592;9.600;2023-07-20T17:29:48;1.95;;;1.25;;
20369;SDS011;10344;47.592;9.600;2023-07-20T17:32:26;1.40;;;1.13;;
20369;SDS011;10344;47.592;9.600;2023-07-20T17:34:55;3.03;;;1.20;;
20369;SDS011;10344;47.592;9.600;2023-07-20T17:37:21;1.20;;;0.97;;
20369;SDS011;10344;47.592;9.600;2023-07-20T17:39:49;1.90;;;1.33;;
20369;SDS011;10344;47.592;9.600;2023-07-20T17:42:16;1.73;;;1.30;;
20369;SDS011;10344;47.592;9.600;2023-07-20T17:44:41;2.67;;;1.23;;
20369;SDS011;10344;47.592;9.600;2023-07-20T17:47:07;1.33;;;1.00;;
20369;SDS011;10344;47.592;9.600;2023-07-20T17:49:33;1.20;;;1.10;;
20369;SDS011;10344;47.592;9.600;2023-07-20T17:52:00;1.53;;;1.10;;
20369;SDS011;10344;47.592;9.600;2023-07-20T17:54:25;1.67;;;1.15;;
20369;SDS011;10344;47.592;9.600;2023-07-20T17:56:53;1.48;;;1.30;;
20369;SDS011;10344;47.592;9.600;2023-07-20T17:59:21;1.17;;;1.08;;
20369;SDS011;10344;47.592;9.600;2023-07-20T18:01:47;2.00;;;1.20;;
20369;SDS011;10344;47.592;9.600;2023-07-20T18:04:13;1.88;;;1.17;;
20369;SDS011;10344;47.592;9.600;2023-07-20T18:06:41;1.03;;;0.90;;
20369;SDS011;10344;47.592;9.600;2023-07-20T18:09:06;1.45;;;1.00;;
20369;SDS011;10344;47.592;9.600;2023-07-20T18:11:34;1.20;;;1.02;;
20369;SDS011;10344;47.592;9.600;2023-07-20T18:14:00;1.80;;;1.27;;
20369;SDS011;10344;47.592;9.600;2023-07-20T18:16:26;1.98;;;1.23;;
20369;SDS011;10344;47.592;9.600;2023-07-20T18:18:52;1.20;;;1.10;;
20369;SDS011;10344;47.592;9.600;2023-07-20T18:21:17;1.93;;;1.13;;
20369;SDS011;10344;47.592;9.600;2023-07-20T18:23:43;2.50;;;1.10;;
20369;SDS011;10344;47.592;9.600;2023-07-20T18:26:11;1.20;;;1.10;;
20369;SDS011;10344;47.592;9.600;2023-07-20T18:28:36;1.40;;;1.10;;
20369;SDS011;10344;47.592;9.600;2023-07-20T18:31:05;1.95;;;1.20;;
20369;SDS011;10344;47.592;9.600;2023-07-20T18:33:33;1.40;;;0.98;;
20369;SDS011;10344;47.592;9.600;2023-07-20T18:35:59;1.83;;;1.10;;
20369;SDS011;10344;47.592;9.600;2023-07-20T18:38:27;1.88;;;1.10;;
20369;SDS011;10344;47.592;9.600;2023-07-20T18:40:53;1.33;;;1.00;;
20369;SDS011;10344;47.592;9.600;2023-07-20T18:43:21;1.35;;;1.00;;
20369;SDS011;10344;47.592;9.600;2023-07-20T18:45:47;2.08;;;1.20;;
20369;SDS011;10344;47.592;9.600;2023-07-20T18:48:12;1.60;;;1.20;;
20369;SDS011;10344;47.592;9.600;2023-07-20T18:50:40;2.30;;;1.20;;
20369;SDS011;10344;47.592;9.600;2023-07-20T18:53:08;1.30;;;1.20;;
20369;SDS011;10344;47.592;9.600;2023-07-20T18:55:34;1.98;;;1.25;;
20369;SDS011;10344;47.592;9.600;2023-07-20T18:58:01;3.20;;;1.13;;
20369;SDS011;10344;47.592;9.600;2023-07-20T19:00:27;1.80;;;1.23;;
20369;SDS011;10344;47.592;9.600;2023-07-20T19:02:56;1.13;;;1.00;;
20369;SDS011;10344;47.592;9.600;2023-07-20T19:05:22;2.33;;;1.20;;
20369;SDS011;10344;47.592;9.600;2023-07-20T19:07:51;1.98;;;1.30;;
20369;SDS011;10344;47.592;9.600;2023-07-20T19:10:21;1.77;;;1.38;;
20369;SDS011;10344;47.592;9.600;2023-07-20T19:12:47;1.40;;;1.30;;
20369;SDS011;10344;47.592;9.600;2023-07-20T19:15:15;1.70;;;1.60;;
20369;SDS011;10344;47.592;9.600;2023-07-20T19:17:40;1.97;;;1.40;;
20369;SDS011;10344;47.592;9.600;2023-07-20T19:20:06;4.20;;;1.50;;
20369;SDS011;10344;47.592;9.600;2023-07-20T19:22:32;2.45;;;1.40;;
20369;SDS011;10344;47.592;9.600;2023-07-20T19:25:01;2.00;;;1.63;;
20369;SDS011;10344;47.592;9.600;2023-07-20T19:27:27;2.37;;;1.60;;
20369;SDS011;10344;47.592;9.600;2023-07-20T19:29:52;1.93;;;1.30;;
20369;SDS011;10344;47.592;9.600;2023-07-20T19:32:18;1.95;;;1.30;;
20369;SDS011;10344;47.592;9.600;2023-07-20T19:34:44;2.10;;;1.70;;
20369;SDS011;10344;47.592;9.600;2023-07-20T19:37:09;2.33;;;1.40;;
20369;SDS011;10344;47.592;9.600;2023-07-20T19:39:37;2.75;;;1.95;;
20369;SDS011;10344;47.592;9.600;2023-07-20T19:42:03;2.30;;;2.10;;
20369;SDS011;10344;47.592;9.600;2023-07-20T19:44:28;2.57;;;2.30;;
20369;SDS011;10344;47.592;9.600;2023-07-20T19:46:54;2.87;;;2.30;;
20369;SDS011;10344;47.592;9.600;2023-07-20T19:49:20;3.35;;;1.95;;
20369;SDS011;10344;47.592;9.600;2023-07-20T19:51:48;3.00;;;1.95;;
20369;SDS011;10344;47.592;9.600;2023-07-20T19:54:14;2.42;;;2.22;;
